Time;durP1;ratioP1;P1;durP2;ratioP2;P2;SDS_P1;SDS_P2;PMS_P1;PMS_P2;Temp;Humidity;BMP_temperature;BMP_pressure;BME280_temperature;BME280_humidity;BME280_pressure;Samples;Min_cycle;Max_cycle;Signal;HPM_P1;HPM_P2
2023/02/11 00:00:18;;;;;;;0.50;0.50;;;;;;;6.99;100.00;102922.97;5014405;28;20109;-82
2023/02/11 00:02:44;;;;;;;0.40;0.40;;;;;;;6.98;100.00;102933.75;5013893;28;20499;-81
2023/02/11 00:05:10;;;;;;;0.40;0.40;;;;;;;6.99;100.00;102938.16;5013966;28;20472;-81
2023/02/11 00:07:38;;;;;;;0.50;0.50;;;;;;;6.98;100.00;102939.97;4998524;28;20084;-81
2023/02/11 00:10:07;;;;;;;0.40;0.40;;;;;;;7.00;100.00;102943.41;4982714;28;20038;-80
2023/02/11 00:12:37;;;;;;;0.40;0.40;;;;;;;7.04;100.00;102949.44;5030434;28;20069;-79
2023/02/11 00:15:03;;;;;;;0.40;0.40;;;;;;;7.04;100.00;102936.06;5014052;28;20079;-81
2023/02/11 00:17:33;;;;;;;0.50;0.50;;;;;;;7.05;100.00;102938.59;5014676;28;20041;-81
2023/02/11 00:19:59;;;;;;;0.40;0.40;;;;;;;7.05;100.00;102932.41;5014314;28;20034;-81
2023/02/11 00:22:25;;;;;;;0.40;0.40;;;;;;;7.07;100.00;102930.50;5013866;28;20060;-82
2023/02/11 00:24:50;;;;;;;0.40;0.40;;;;;;;7.04;100.00;102922.69;4997691;28;20049;-81
2023/02/11 00:27:16;;;;;;;0.40;0.40;;;;;;;7.05;100.00;102922.56;5014197;28;20029;-80
2023/02/11 00:29:41;;;;;;;0.40;0.40;;;;;;;7.04;100.00;102920.84;5013447;28;20349;-80
2023/02/11 00:32:08;;;;;;;0.40;0.40;;;;;;;6.89;100.00;102897.78;5014833;28;20470;-80
2023/02/11 00:34:38;;;;;;;0.40;0.40;;;;;;;6.96;100.00;102920.50;5013273;28;20182;-80
2023/02/11 00:37:04;;;;;;;0.40;0.40;;;;;;;6.94;100.00;102924.22;4997530;28;20026;-80
2023/02/11 00:39:29;;;;;;;0.40;0.40;;;;;;;6.86;100.00;102910.50;4997482;28;20040;-82
2023/02/11 00:41:55;;;;;;;0.40;0.40;;;;;;;6.93;100.00;102923.38;5013169;28;20129;-80
2023/02/11 00:44:21;;;;;;;0.40;0.40;;;;;;;6.93;100.00;102923.38;4997419;28;20113;-81
2023/02/11 00:46:46;;;;;;;0.40;0.40;;;;;;;6.91;100.00;102919.09;5013196;28;20388;-80
2023/02/11 00:49:12;;;;;;;0.50;0.50;;;;;;;6.88;100.00;102917.47;4997597;28;20038;-81
2023/02/11 00:51:38;;;;;;;0.50;0.50;;;;;;;6.86;100.00;102911.34;4996736;28;20050;-81
2023/02/11 00:54:04;;;;;;;0.50;0.50;;;;;;;6.94;100.00;102914.38;4997417;28;20136;-82
2023/02/11 00:56:32;;;;;;;0.40;0.40;;;;;;;6.82;100.00;102905.31;5013072;28;20121;-81
2023/02/11 00:58:58;;;;;;;0.40;0.40;;;;;;;6.90;100.00;102907.50;5012973;28;20033;-80
2023/02/11 01:01:24;;;;;;;0.40;0.40;;;;;;;6.93;100.00;102904.66;5013677;28;20434;-80
2023/02/11 01:03:49;;;;;;;0.50;0.50;;;;;;;6.92;100.00;102902.91;5012460;28;20033;-80
2023/02/11 01:06:15;;;;;;;0.40;0.40;;;;;;;6.94;100.00;102892.97;5012781;28;20464;-80
2023/02/11 01:08:41;;;;;;;0.40;0.40;;;;;;;6.90;100.00;102879.91;5012727;28;20432;-80
2023/02/11 01:11:17;;;;;;;0.40;0.40;;;;;;;6.98;100.00;102888.28;4997177;28;20475;-81
2023/02/11 01:13:43;;;;;;;0.40;0.40;;;;;;;6.97;100.00;102892.78;4996720;28;20468;-83
2023/02/11 01:16:13;;;;;;;0.50;0.50;;;;;;;6.90;100.00;102879.91;5012965;28;20041;-80
2023/02/11 01:18:41;;;;;;;0.40;0.40;;;;;;;6.99;100.00;102896.22;4997061;28;20036;-81
2023/02/11 01:21:10;;;;;;;0.40;0.40;;;;;;;6.93;100.00;102895.75;5012736;28;20551;-81
2023/02/11 01:23:35;;;;;;;0.40;0.40;;;;;;;6.92;100.00;102894.88;4997209;28;20034;-80
2023/02/11 01:26:01;;;;;;;0.40;0.40;;;;;;;6.83;100.00;102892.84;4995801;28;20037;-80
2023/02/11 01:28:28;;;;;;;0.50;0.50;;;;;;;6.91;100.00;102908.38;5012808;28;20030;-81
2023/02/11 01:30:54;;;;;;;0.50;0.50;;;;;;;6.89;100.00;102897.78;5012613;28;20033;-82
2023/02/11 01:33:20;;;;;;;0.50;0.50;;;;;;;6.89;100.00;102900.44;5012805;28;20117;-79
2023/02/11 01:35:46;;;;;;;0.50;0.50;;;;;;;6.89;100.00;102900.44;4996867;28;20486;-80
2023/02/11 01:38:17;;;;;;;0.40;0.40;;;;;;;6.89;100.00;102897.78;5013114;28;20026;-80
2023/02/11 01:40:50;;;;;;;0.40;0.40;;;;;;;6.92;100.00;102899.38;5012825;28;20534;-80
2023/02/11 01:43:18;;;;;;;0.40;0.40;;;;;;;6.90;100.00;102893.28;4996066;28;20048;-80
2023/02/11 01:45:47;;;;;;;0.40;0.40;;;;;;;6.90;100.00;102894.13;4980280;28;20527;-79
2023/02/11 01:48:24;;;;;;;0.50;0.50;;;;;;;6.76;100.00;102864.75;5012554;28;20054;-82
2023/02/11 01:50:53;;;;;;;0.50;0.50;;;;;;;6.84;100.00;102883.84;4980169;28;20092;-80
2023/02/11 01:58:51;;;;;;;0.45;0.45;;;;;;;6.82;100.00;102883.06;5012462;28;20532;-82
2023/02/11 02:01:20;;;;;;;0.40;0.40;;;;;;;6.82;100.00;102888.41;4995460;28;20022;-81
2023/02/11 02:03:50;;;;;;;0.40;0.40;;;;;;;6.76;100.00;102878.13;4995970;28;20132;-82
2023/02/11 02:06:24;;;;;;;0.40;0.40;;;;;;;6.77;100.00;102882.50;4996563;28;20034;-81
2023/02/11 02:09:03;;;;;;;0.40;0.40;;;;;;;6.73;100.00;102872.97;4995747;28;20026;-81
2023/02/11 02:11:30;;;;;;;0.40;0.40;;;;;;;6.71;100.00;102880.25;5012848;28;20139;-80
2023/02/11 02:13:55;;;;;;;0.47;0.47;;;;;;;6.77;100.00;102875.38;4979534;28;20029;-81
2023/02/11 02:16:28;;;;;;;0.40;0.40;;;;;;;6.78;100.00;102878.91;5013609;28;20044;-80
2023/02/11 02:18:57;;;;;;;0.40;0.40;;;;;;;6.81;100.00;102876.03;5016185;28;20476;-82
2023/02/11 02:22:00;;;;;;;0.40;0.40;;;;;;;6.82;100.00;102872.38;5017475;28;20037;-80
2023/02/11 02:24:59;;;;;;;0.40;0.40;;;;;;;6.83;100.00;102874.13;5017716;28;20038;-80
2023/02/11 02:27:37;;;;;;;0.50;0.50;;;;;;;6.85;100.00;102871.31;5016748;28;20427;-82
2023/02/11 02:30:44;;;;;;;0.40;0.40;;;;;;;6.85;100.00;102872.16;5000619;28;20065;-79
2023/02/11 02:33:31;;;;;;;0.50;0.50;;;;;;;6.83;100.00;102874.97;4999094;28;20025;-81
2023/02/11 02:36:22;;;;;;;0.40;0.40;;;;;;;6.81;100.00;102862.66;5017441;28;20490;-79
2023/02/11 02:39:00;;;;;;;0.40;0.40;;;;;;;6.80;100.00;102863.59;4982976;28;20037;-80
2023/02/11 02:41:32;;;;;;;0.40;0.40;;;;;;;6.83;100.00;102864.28;4999815;28;20032;-82
2023/02/11 02:44:01;;;;;;;0.50;0.50;;;;;;;6.80;100.00;102860.91;5015300;28;20169;-82
2023/02/11 02:46:27;;;;;;;0.40;0.40;;;;;;;6.87;100.00;102867.59;5015996;28;20041;-81
2023/02/11 02:48:54;;;;;;;0.40;0.40;;;;;;;6.79;100.00;102853.88;4999850;28;20057;-81
2023/02/11 02:51:32;;;;;;;0.40;0.40;;;;;;;6.81;100.00;102849.28;4999663;28;20472;-81
2023/02/11 02:54:29;;;;;;;0.50;0.50;;;;;;;6.87;100.00;102869.41;5015990;28;20049;-81
2023/02/11 02:57:13;;;;;;;0.40;0.40;;;;;;;6.78;100.00;102852.16;5015215;28;20030;-81
2023/02/11 02:59:54;;;;;;;0.50;0.50;;;;;;;6.77;100.00;102855.78;5016907;28;20026;-81
2023/02/11 03:02:25;;;;;;;0.40;0.40;;;;;;;6.75;100.00;102858.56;5014922;28;20030;-81
2023/02/11 03:05:03;;;;;;;0.40;0.40;;;;;;;6.76;100.00;102856.75;5015638;28;20100;-81
2023/02/11 03:07:47;;;;;;;0.40;0.40;;;;;;;6.74;100.00;102855.97;4999597;28;20034;-81
2023/02/11 03:10:18;;;;;;;0.50;0.50;;;;;;;6.74;100.00;102859.50;4999219;28;20128;-82
2023/02/11 03:12:45;;;;;;;0.40;0.40;;;;;;;6.64;100.00;102841.47;5015628;28;20033;-81
2023/02/11 03:15:11;;;;;;;0.40;0.40;;;;;;;6.70;100.00;102863.34;5014886;28;20030;-81
2023/02/11 03:17:39;;;;;;;0.40;0.40;;;;;;;6.69;100.00;102866.09;5015208;28;20034;-81
2023/02/11 03:20:10;;;;;;;0.43;0.43;;;;;;;6.68;100.00;102864.41;5014584;28;20120;-83
2023/02/11 03:22:43;;;;;;;0.40;0.40;;;;;;;6.63;100.00;102848.66;4998878;28;20423;-81
2023/02/11 03:25:09;;;;;;;0.50;0.50;;;;;;;6.64;100.00;102849.50;4999169;28;20069;-83
2023/02/11 03:27:46;;;;;;;0.40;0.40;;;;;;;6.70;100.00;102858.00;4997238;28;20065;-80
2023/02/11 03:30:16;;;;;;;0.40;0.40;;;;;;;6.72;100.00;102855.22;4999133;28;20029;-84
2023/02/11 03:32:55;;;;;;;0.40;0.40;;;;;;;6.77;100.00;102859.31;4998764;28;20103;-83
2023/02/11 03:35:23;;;;;;;0.50;0.50;;;;;;;6.83;100.00;102863.41;5010518;28;20038;-81
2023/02/11 03:38:08;;;;;;;0.40;0.40;;;;;;;6.85;100.00;102856.13;4998902;28;20610;-81
2023/02/11 03:40:36;;;;;;;0.40;0.40;;;;;;;6.82;100.00;102857.19;5013961;28;20060;-82
2023/02/11 03:43:10;;;;;;;0.40;0.40;;;;;;;6.88;100.00;102858.63;4998429;28;20044;-81
2023/02/11 03:45:37;;;;;;;0.50;0.50;;;;;;;6.91;100.00;102854.91;5031224;28;20025;-81
2023/02/11 03:48:30;;;;;;;0.50;0.50;;;;;;;6.94;100.00;102860.03;4997794;28;20072;-81
2023/02/11 03:50:56;;;;;;;0.40;0.40;;;;;;;6.95;100.00;102861.75;4998587;28;20057;-81
2023/02/11 03:53:22;;;;;;;0.40;0.40;;;;;;;6.96;100.00;102864.31;4998098;28;20037;-81
2023/02/11 03:55:49;;;;;;;0.40;0.40;;;;;;;6.97;100.00;102857.16;5015213;28;20045;-81
2023/02/11 03:58:15;;;;;;;0.45;0.45;;;;;;;6.95;100.00;102851.91;4998491;28;20041;-81
2023/02/11 04:00:43;;;;;;;0.40;0.40;;;;;;;6.96;100.00;102858.97;5014330;28;20033;-81
2023/02/11 04:03:09;;;;;;;0.40;0.40;;;;;;;6.97;100.00;102862.50;4997318;28;20587;-82
2023/02/11 04:05:35;;;;;;;0.40;0.40;;;;;;;6.98;100.00;102873.09;4998300;28;20030;-81
2023/02/11 04:08:01;;;;;;;0.40;0.40;;;;;;;6.93;100.00;102867.22;5013645;28;20026;-81
2023/02/11 04:10:27;;;;;;;0.43;0.43;;;;;;;6.93;100.00;102864.53;5014428;28;20089;-81
2023/02/11 04:12:52;;;;;;;0.40;0.40;;;;;;;6.99;100.00;102868.63;5014428;28;20084;-81
2023/02/11 04:15:18;;;;;;;0.47;0.47;;;;;;;6.99;100.00;102872.16;5013833;28;20389;-80
2023/02/11 04:17:44;;;;;;;0.40;0.40;;;;;;;7.00;100.00;102870.31;5014164;28;20110;-81
2023/02/11 04:20:13;;;;;;;0.40;0.40;;;;;;;7.05;100.00;102857.50;5014172;28;20041;-81
2023/02/11 04:22:38;;;;;;;0.40;0.40;;;;;;;7.03;100.00;102854.91;5013274;28;20499;-81
2023/02/11 04:25:08;;;;;;;0.50;0.50;;;;;;;7.03;100.00;102860.28;5013823;28;20053;-80
2023/02/11 04:27:34;;;;;;;0.40;0.40;;;;;;;7.03;100.00;102854.91;5012927;28;20033;-80
2023/02/11 04:30:00;;;;;;;0.40;0.40;;;;;;;6.99;100.00;102850.75;5013754;28;20030;-81
2023/02/11 04:32:25;;;;;;;0.40;0.40;;;;;;;7.01;100.00;102859.53;5012647;28;20046;-79
2023/02/11 04:34:51;;;;;;;0.40;0.40;;;;;;;6.96;100.00;102848.28;5013867;28;20071;-83
2023/02/11 04:37:17;;;;;;;0.50;0.50;;;;;;;6.95;100.00;102848.38;5013564;28;20373;-80
2023/02/11 04:39:42;;;;;;;0.50;0.50;;;;;;;6.95;100.00;102851.91;5012462;28;20030;-82
2023/02/11 04:42:08;;;;;;;0.50;0.50;;;;;;;6.97;100.00;102852.66;5013695;28;20034;-83
2023/02/11 04:44:34;;;;;;;0.40;0.40;;;;;;;6.95;100.00;102854.56;4997267;28;20033;-81
2023/02/11 04:46:59;;;;;;;0.50;0.50;;;;;;;6.95;100.00;102849.22;5029424;28;20030;-82
2023/02/11 04:49:25;;;;;;;0.50;0.50;;;;;;;6.87;100.00;102838.16;4997439;28;20472;-80
2023/02/11 04:51:51;;;;;;;0.40;0.40;;;;;;;6.95;100.00;102846.53;4996783;28;20041;-79
2023/02/11 04:54:16;;;;;;;0.45;0.45;;;;;;;6.95;100.00;102848.38;5013633;28;20376;-80
2023/02/11 04:56:42;;;;;;;0.40;0.40;;;;;;;6.90;100.00;102837.13;5013471;28;20424;-80
2023/02/11 04:59:12;;;;;;;0.40;0.40;;;;;;;6.87;100.00;102837.31;5013045;28;20053;-80
2023/02/11 05:01:38;;;;;;;0.40;0.40;;;;;;;6.88;100.00;102845.25;5014287;28;20400;-80
2023/02/11 05:04:04;;;;;;;0.40;0.40;;;;;;;6.85;100.00;102836.56;5011753;28;20080;-80
2023/02/11 05:06:29;;;;;;;0.45;0.45;;;;;;;6.88;100.00;102833.69;4996539;28;20033;-81
2023/02/11 05:08:55;;;;;;;0.40;0.40;;;;;;;6.86;100.00;102836.47;5013483;28;20133;-79
2023/02/11 05:11:24;;;;;;;0.40;0.40;;;;;;;6.92;100.00;102841.41;4997257;28;20046;-79
2023/02/11 05:13:50;;;;;;;0.40;0.40;;;;;;;6.89;100.00;102830.91;4979875;28;20124;-79
2023/02/11 05:16:16;;;;;;;0.40;0.40;;;;;;;6.92;100.00;102836.06;5014298;28;20112;-79
2023/02/11 05:18:43;;;;;;;0.40;0.40;;;;;;;6.91;100.00;102846.88;5012880;28;20080;-81
2023/02/11 05:21:11;;;;;;;0.50;0.50;;;;;;;6.88;100.00;102844.38;5012155;28;20030;-80
2023/02/11 05:23:38;;;;;;;0.40;0.40;;;;;;;6.83;100.00;102836.69;4996928;28;20116;-79
2023/02/11 05:26:04;;;;;;;0.40;0.40;;;;;;;6.88;100.00;102844.38;5013107;28;20117;-82
2023/02/11 05:28:30;;;;;;;0.50;0.50;;;;;;;6.88;100.00;102844.38;5013171;28;20088;-80
2023/02/11 05:30:56;;;;;;;0.40;0.40;;;;;;;6.93;100.00;102858.31;5013045;28;20026;-81
2023/02/11 05:33:22;;;;;;;0.50;0.50;;;;;;;6.87;100.00;102848.03;5012534;28;20026;-79
2023/02/11 05:35:47;;;;;;;0.50;0.50;;;;;;;6.83;100.00;102847.38;5013236;28;20048;-80
2023/02/11 05:38:13;;;;;;;0.40;0.40;;;;;;;6.86;100.00;102857.00;4995308;28;20026;-79
2023/02/11 05:40:41;;;;;;;0.50;0.50;;;;;;;6.85;100.00;102861.47;5012117;28;20029;-82
2023/02/11 05:43:09;;;;;;;0.50;0.50;;;;;;;6.80;100.00;102856.44;5013985;28;20030;-79
2023/02/11 05:45:38;;;;;;;0.50;0.50;;;;;;;6.76;100.00;102856.75;5012724;28;20373;-80
2023/02/11 05:48:04;;;;;;;0.40;0.40;;;;;;;6.77;100.00;102861.13;5012853;28;20030;-80
2023/02/11 05:50:29;;;;;;;0.50;0.50;;;;;;;6.79;100.00;102861.88;4996362;28;20060;-80
2023/02/11 05:52:55;;;;;;;0.40;0.40;;;;;;;6.78;100.00;102868.19;5028637;28;20049;-81
2023/02/11 05:55:20;;;;;;;0.40;0.40;;;;;;;6.78;100.00;102865.53;4996018;28;20030;-80
2023/02/11 05:57:46;;;;;;;0.40;0.40;;;;;;;6.81;100.00;102862.66;4980442;28;20049;-79
2023/02/11 06:00:15;;;;;;;0.50;0.50;;;;;;;6.86;100.00;102868.56;5012061;28;20069;-80
2023/02/11 06:02:41;;;;;;;0.50;0.50;;;;;;;6.84;100.00;102859.78;4996407;28;20468;-80
2023/02/11 06:05:07;;;;;;;0.50;0.50;;;;;;;6.86;100.00;102859.69;5012402;28;20033;-79
2023/02/11 06:07:33;;;;;;;0.40;0.40;;;;;;;6.89;100.00;102862.16;5012802;28;20034;-79
2023/02/11 06:09:58;;;;;;;0.50;0.50;;;;;;;6.88;100.00;102857.75;4996466;28;20038;-79
2023/02/11 06:12:27;;;;;;;0.40;0.40;;;;;;;6.86;100.00;102863.22;4996433;28;20132;-80
2023/02/11 06:14:53;;;;;;;0.40;0.40;;;;;;;6.88;100.00;102861.31;5011823;28;20045;-79
2023/02/11 06:17:18;;;;;;;0.50;0.50;;;;;;;6.88;100.00;102860.41;4995923;28;20026;-80
2023/02/11 06:19:47;;;;;;;0.50;0.50;;;;;;;6.90;100.00;102867.38;5012494;28;20038;-80
2023/02/11 06:22:12;;;;;;;0.40;0.40;;;;;;;6.87;100.00;102867.59;5027851;28;20037;-79
2023/02/11 06:24:38;;;;;;;0.50;0.50;;;;;;;6.90;100.00;102866.53;5012656;28;20034;-79
2023/02/11 06:27:07;;;;;;;0.50;0.50;;;;;;;6.89;100.00;102865.69;5013126;28;20037;-80
2023/02/11 06:32:54;;;;;;;0.40;0.40;;;;;;;6.78;100.00;102845.00;4992442;28;20085;-79
2023/02/11 06:35:34;;;;;;;0.40;0.40;;;;;;;6.59;100.00;102807.06;4994934;28;20550;-80
2023/02/11 06:38:42;;;;;;;0.40;0.40;;;;;;;6.63;100.00;102813.03;5003072;28;20038;-79
2023/02/11 06:41:43;;;;;;;;;;;;;;;;;;;;;
2023/02/11 06:44:32;;;;;;;0.40;0.40;;;;;;;6.95;100.00;102867.94;5012742;28;20077;-81
2023/02/11 06:47:03;;;;;;;0.50;0.50;;;;;;;6.69;100.00;102828.69;5010127;28;20070;-80
2023/02/11 06:49:55;;;;;;;0.50;0.50;;;;;;;6.88;100.00;102858.63;4996898;28;20061;-79
2023/02/11 06:53:03;;;;;;;0.50;0.50;;;;;;;6.59;100.00;102810.56;4999140;28;20041;-80
2023/02/11 06:55:31;;;;;;;0.50;0.50;;;;;;;6.71;100.00;102826.78;4996842;28;20034;-80
2023/02/11 06:57:58;;;;;;;0.40;0.40;;;;;;;6.90;100.00;102856.69;5011975;28;20038;-79
2023/02/11 07:00:28;;;;;;;0.40;0.40;;;;;;;6.83;100.00;102842.03;5012169;28;20033;-79
2023/02/11 07:02:54;;;;;;;0.50;0.50;;;;;;;6.88;100.00;102849.72;5012538;28;20026;-79
2023/02/11 07:05:20;;;;;;;0.50;0.50;;;;;;;6.70;100.00;102815.22;5016757;28;20460;-80
2023/02/11 07:07:45;;;;;;;0.50;0.50;;;;;;;6.75;100.00;102818.47;5015225;28;20044;-79
2023/02/11 07:10:11;;;;;;;0.43;0.43;;;;;;;7.00;100.00;102856.94;4999268;28;20165;-79
2023/02/11 07:12:37;;;;;;;0.50;0.50;;;;;;;7.00;100.00;102857.81;4999382;28;20033;-80
2023/02/11 07:15:04;;;;;;;0.43;0.43;;;;;;;7.00;100.00;102847.09;5016146;28;20034;-79
2023/02/11 07:17:32;;;;;;;0.50;0.50;;;;;;;6.98;100.00;102842.81;4999412;28;20400;-79
2023/02/11 07:20:01;;;;;;;0.47;0.47;;;;;;;7.07;100.00;102857.41;5014961;28;20384;-79
2023/02/11 07:22:29;;;;;;;0.68;0.68;;;;;;;6.98;100.00;102854.38;4982906;28;20034;-79
2023/02/11 07:24:55;;;;;;;8.45;3.70;;;;;;;6.99;100.00;102848.06;5014866;28;20037;-81
2023/02/11 07:27:21;;;;;;;0.85;0.85;;;;;;;7.02;100.00;102858.56;4998478;28;20037;-80
2023/02/11 07:29:47;;;;;;;0.88;0.88;;;;;;;7.01;100.00;102856.88;5015280;28;20104;-79
2023/02/11 07:32:16;;;;;;;0.82;0.82;;;;;;;6.97;100.00;102849.13;5014045;28;20032;-79
2023/02/11 07:34:41;;;;;;;1.50;1.40;;;;;;;6.96;100.00;102842.06;4999229;28;20443;-81
2023/02/11 07:37:07;;;;;;;7.88;3.47;;;;;;;6.93;100.00;102853.84;5015223;28;20041;-79
2023/02/11 07:39:33;;;;;;;3.80;1.80;;;;;;;6.90;100.00;102861.19;5015636;28;20084;-79
2023/02/11 07:41:58;;;;;;;1.70;1.02;;;;;;;6.82;100.00;102854.50;5014724;28;20044;-79
2023/02/11 07:44:24;;;;;;;9.45;2.20;;;;;;;6.88;100.00;102871.13;5014622;28;20030;-81
2023/02/11 07:46:50;;;;;;;3.08;2.65;;;;;;;6.80;100.00;102861.78;5014900;28;20030;-80
2023/02/11 07:49:16;;;;;;;0.88;0.88;;;;;;;6.81;100.00;102865.31;5014733;28;20092;-80
2023/02/11 07:51:42;;;;;;;0.70;0.68;;;;;;;6.76;100.00;102862.94;5014784;28;20033;-80
2023/02/11 07:54:09;;;;;;;1.25;1.23;;;;;;;6.64;100.00;102838.81;5031252;28;20080;-81
2023/02/11 07:56:35;;;;;;;7.18;3.25;;;;;;;6.80;100.00;102860.91;5014428;28;20053;-80
2023/02/11 07:59:03;;;;;;;16.83;7.57;;;;;;;6.81;100.00;102868.84;5014289;28;20400;-80
2023/02/11 08:01:29;;;;;;;14.90;4.28;;;;;;;6.78;100.00;102876.22;5015341;28;20037;-81
2023/02/11 08:04:00;;;;;;;2.42;1.98;;;;;;;6.73;100.00;102875.66;5014582;28;20038;-80
2023/02/11 08:06:30;;;;;;;0.70;0.70;;;;;;;6.77;100.00;102882.50;5014446;28;20443;-80
2023/02/11 08:08:56;;;;;;;2.25;1.65;;;;;;;6.76;100.00;102878.13;4998246;28;20127;-79
2023/02/11 08:11:26;;;;;;;2.25;2.05;;;;;;;6.71;100.00;102880.25;5015456;28;20029;-80
2023/02/11 08:13:53;;;;;;;2.95;1.17;;;;;;;6.63;100.00;102877.19;5014183;28;20092;-79
2023/02/11 08:16:25;;;;;;;6.00;2.25;;;;;;;6.70;100.00;102891.91;4997424;28;20037;-80
2023/02/11 08:18:58;;;;;;;2.58;1.42;;;;;;;6.69;100.00;102892.84;4998169;28;20379;-81
2023/02/11 08:21:24;;;;;;;2.00;1.73;;;;;;;6.68;100.00;102891.13;5014145;28;20468;-79
2023/02/11 08:23:50;;;;;;;3.88;2.85;;;;;;;6.56;100.00;102871.38;5014204;28;20040;-79
2023/02/11 08:26:18;;;;;;;12.35;5.35;;;;;;;6.70;100.00;102897.25;5013918;28;20037;-79
2023/02/11 08:28:49;;;;;;;26.17;8.60;;;;;;;6.69;100.00;102891.00;5013574;28;20040;-79
2023/02/11 08:31:20;;;;;;;5.75;3.83;;;;;;;6.73;100.00;102900.56;4997418;28;20460;-79
2023/02/11 08:33:46;;;;;;;9.52;2.97;;;;;;;6.66;100.00;102883.19;5014042;28;20438;-79
2023/02/11 08:36:17;;;;;;;18.30;4.60;;;;;;;6.70;100.00;102883.88;5013822;28;20037;-80
2023/02/11 08:38:43;;;;;;;6.60;4.40;;;;;;;6.76;100.00;102910.22;5013517;28;20085;-81
2023/02/11 08:41:10;;;;;;;8.57;3.65;;;;;;;6.72;100.00;102909.56;5013349;28;20093;-80
2023/02/11 08:43:36;;;;;;;15.13;4.68;;;;;;;6.70;100.00;102903.44;5013225;28;20424;-81
2023/02/11 08:46:02;;;;;;;10.73;3.63;;;;;;;6.64;100.00;102898.47;5014695;28;20081;-79
2023/02/11 08:48:28;;;;;;;16.40;4.65;;;;;;;6.72;100.00;102908.69;4996445;28;20044;-80
2023/02/11 08:50:57;;;;;;;17.67;5.43;;;;;;;6.66;100.00;102911.75;5013478;28;20111;-79
2023/02/11 08:53:25;;;;;;;20.17;7.60;;;;;;;6.76;100.00;102920.91;5014415;28;20061;-81
2023/02/11 08:55:53;;;;;;;17.63;8.20;;;;;;;6.78;100.00;102917.19;5013508;28;20025;-81
2023/02/11 08:58:20;;;;;;;15.07;4.55;;;;;;;6.78;100.00;102902.97;5012007;28;20057;-81
2023/02/11 09:00:47;;;;;;;10.52;3.38;;;;;;;6.83;100.00;102906.19;4996944;28;20048;-81
2023/02/11 09:03:13;;;;;;;7.45;2.75;;;;;;;6.84;100.00;102910.56;4996676;28;20029;-81
2023/02/11 09:05:46;;;;;;;4.93;2.03;;;;;;;6.86;100.00;102911.34;4997089;28;20030;-81
2023/02/11 09:08:12;;;;;;;5.03;2.30;;;;;;;6.81;100.00;102903.63;5012707;28;20060;-81
2023/02/11 09:10:38;;;;;;;10.52;2.63;;;;;;;6.87;100.00;102910.38;4997084;28;20087;-81
2023/02/11 09:13:06;;;;;;;5.80;2.15;;;;;;;6.94;100.00;102905.50;4996889;28;20045;-82
2023/02/11 09:15:31;;;;;;;10.95;4.43;;;;;;;6.90;100.00;102903.97;5012824;28;20104;-81
2023/02/11 09:17:57;;;;;;;9.90;3.13;;;;;;;6.98;100.00;102915.03;4996847;28;20571;-81
2023/02/11 09:20:25;;;;;;;7.05;4.22;;;;;;;6.98;100.00;102904.31;5012546;28;20030;-81
2023/02/11 09:22:51;;;;;;;7.05;3.05;;;;;;;6.80;100.00;102869.81;4996373;28;20037;-81
2023/02/11 09:25:17;;;;;;;4.32;2.10;;;;;;;6.93;100.00;102887.72;5012303;28;20041;-80
2023/02/11 09:27:43;;;;;;;4.15;2.35;;;;;;;6.96;100.00;102895.53;4996270;28;20025;-81
2023/02/11 09:30:09;;;;;;;13.57;3.58;;;;;;;6.98;100.00;102893.63;5013722;28;20389;-81
2023/02/11 09:32:34;;;;;;;9.77;3.72;;;;;;;7.08;100.00;102920.66;5012902;28;20034;-81
2023/02/11 09:35:00;;;;;;;9.45;3.40;;;;;;;7.10;100.00;102918.75;5013762;28;20088;-82
2023/02/11 09:37:26;;;;;;;9.23;3.95;;;;;;;7.07;100.00;102900.22;4996281;28;20096;-82
2023/02/11 09:39:51;;;;;;;9.70;4.32;;;;;;;7.09;100.00;102893.78;5012711;28;20033;-82
2023/02/11 09:42:36;;;;;;;13.20;4.60;;;;;;;7.30;100.00;102909.38;4996568;28;20049;-81
2023/02/11 09:45:03;;;;;;;13.07;5.00;;;;;;;7.42;100.00;102903.22;5028973;28;20088;-82
2023/02/11 09:47:33;;;;;;;9.23;3.28;;;;;;;7.57;100.00;102898.63;4995848;28;20491;-81
2023/02/11 09:50:03;;;;;;;12.40;5.45;;;;;;;7.67;100.00;102891.72;4996121;28;20121;-82
2023/02/11 09:52:36;;;;;;;14.23;7.22;;;;;;;7.84;100.00;102896.78;5012830;28;20045;-82
2023/02/11 09:55:08;;;;;;;14.30;5.40;;;;;;;7.80;100.00;102881.00;4995992;28;20125;-81
2023/02/11 09:57:35;;;;;;;18.85;8.63;;;;;;;8.03;100.00;102904.41;4996292;28;20484;-82
2023/02/11 10:00:31;;;;;;;20.38;7.07;;;;;;;8.16;100.00;102904.41;5012298;28;20037;-82
2023/02/11 10:03:06;;;;;;;11.93;4.57;;;;;;;8.29;100.00;102910.63;5004247;28;20093;-81
2023/02/11 10:05:51;;;;;;;11.10;4.40;;;;;;;8.37;100.00;102894.84;5028263;28;20480;-80
2023/02/11 10:08:51;;;;;;;10.82;4.40;;;;;;;8.54;100.00;102904.38;5012794;28;20037;-80
2023/02/11 10:11:23;;;;;;;10.00;5.43;;;;;;;8.62;100.00;102901.16;4996424;28;20093;-80
2023/02/11 10:14:14;;;;;;;16.45;6.40;;;;;;;8.64;100.00;102903.75;5012083;28;20030;-77
2023/02/11 10:16:42;;;;;;;11.40;3.92;;;;;;;8.67;100.00;102896.31;5013711;28;20113;-77
2023/02/11 10:19:28;;;;;;;9.75;4.15;;;;;;;8.65;100.00;102895.56;5012563;28;20057;-78
2023/02/11 10:22:06;;;;;;;9.52;2.80;;;;;;;8.70;100.00;102900.59;5012494;28;20034;-76
2023/02/11 10:24:33;;;;;;;7.40;2.90;;;;;;;8.76;100.00;102897.50;5012641;28;20034;-76
2023/02/11 10:27:07;;;;;;;8.35;3.35;;;;;;;8.82;100.00;102901.56;4980141;28;20133;-77
2023/02/11 10:29:49;;;;;;;10.45;3.42;;;;;;;8.90;100.00;102904.53;4980602;28;20128;-76
2023/02/11 10:32:21;;;;;;;9.32;3.30;;;;;;;8.96;100.00;102904.91;4979556;28;20116;-77
2023/02/11 10:34:47;;;;;;;32.45;10.35;;;;;;;9.02;100.00;102906.28;5012515;28;20034;-77
2023/02/11 10:37:13;;;;;;;31.15;14.10;;;;;;;8.95;100.00;102888.97;4980354;28;20088;-77
2023/02/11 10:39:42;;;;;;;42.70;20.45;;;;;;;9.06;100.00;102898.91;5000108;28;20033;-77
2023/02/11 10:42:11;;;;;;;14.63;5.55;;;;;;;9.08;100.00;102919.28;5015868;28;20434;-77
2023/02/11 10:45:00;;;;;;;10.32;5.63;;;;;;;9.09;100.00;102925.50;4998931;28;20026;-76
2023/02/11 10:47:36;;;;;;;9.77;3.92;;;;;;;8.96;100.00;102904.06;4984579;28;20045;-77
2023/02/11 10:50:25;;;;;;;9.95;3.50;;;;;;;8.96;100.00;102912.97;4983785;28;20134;-76
2023/02/11 10:52:51;;;;;;;6.07;3.30;;;;;;;9.07;100.00;102922.91;4983594;28;20460;-76
2023/02/11 10:55:23;;;;;;;15.60;4.03;;;;;;;9.10;100.00;102920.00;4983259;28;20117;-78
2023/02/11 10:57:58;;;;;;;12.20;4.30;;;;;;;9.12;100.00;102927.94;4999461;28;20049;-79
2023/02/11 11:00:38;;;;;;;8.80;3.28;;;;;;;9.12;100.00;102936.84;5015430;28;20080;-77
2023/02/11 11:03:16;;;;;;;8.98;3.72;;;;;;;9.07;100.00;102922.91;5015500;28;20509;-77
2023/02/11 11:05:51;;;;;;;9.52;4.00;;;;;;;9.09;100.00;102915.63;5015760;28;20026;-77
2023/02/11 11:08:20;;;;;;;8.10;3.95;;;;;;;9.16;100.00;102930.31;4999178;28;20113;-76
2023/02/11 11:10:48;;;;;;;12.27;4.10;;;;;;;9.14;100.00;102923.34;5015373;28;20049;-76
2023/02/11 11:13:33;;;;;;;5.82;2.03;;;;;;;9.24;100.00;102924.38;4999184;28;20044;-75
2023/02/11 11:16:10;;;;;;;15.77;4.82;;;;;;;9.27;100.00;102924.13;5015505;28;20048;-76
2023/02/11 11:18:36;;;;;;;11.85;4.60;;;;;;;9.32;100.00;102931.84;5015382;28;20361;-77
2023/02/11 11:21:06;;;;;;;9.75;3.80;;;;;;;9.35;100.00;102932.47;4982937;28;20049;-76
2023/02/11 11:23:34;;;;;;;8.65;4.78;;;;;;;9.32;100.00;102929.19;5015666;28;20494;-77
2023/02/11 11:26:08;;;;;;;9.05;4.13;;;;;;;9.35;100.00;102937.84;5014914;28;20065;-76
2023/02/11 11:28:56;;;;;;;8.48;3.63;;;;;;;9.36;100.00;102944.06;4998523;28;20052;-75
2023/02/11 11:31:25;;;;;;;10.45;3.85;;;;;;;9.34;100.00;102946.00;5014491;28;20051;-75
2023/02/11 11:33:54;;;;;;;14.32;6.20;;;;;;;9.31;100.00;102940.88;5015115;28;20465;-75
2023/02/11 11:36:21;;;;;;;18.67;6.43;;;;;;;9.32;100.00;102947.97;4999024;28;20059;-76
2023/02/11 11:38:54;;;;;;;13.57;4.97;;;;;;;9.26;100.00;102943.88;4998824;28;20107;-76
2023/02/11 11:41:32;;;;;;;17.58;5.65;;;;;;;9.24;100.00;102946.69;5014180;28;20038;-76
2023/02/11 11:44:26;;;;;;;14.60;4.85;;;;;;;9.24;100.00;102944.00;5014735;28;20041;-76
2023/02/11 11:47:19;;;;;;;14.35;6.35;;;;;;;9.24;100.00;102941.31;4998429;28;20054;-78